sensor_id;sensor_type;location;lat;lon;timestamp;pressure;altitude;pressure_sealevel;temperature;humidity
72414;BME280;60995;52.154;4.498;2022-12-18T00:00:26;102741.81;;;-1.94;85.32
72414;BME280;60995;52.154;4.498;2022-12-18T00:02:42;102733.06;;;-2.14;85.89
72414;BME280;60995;52.154;4.498;2022-12-18T00:04:58;102733.84;;;-1.95;85.46
72414;BME280;60995;52.154;4.498;2022-12-18T00:07:15;102738.22;;;-1.90;85.71
72414;BME280;60995;52.154;4.498;2022-12-18T00:09:31;102733.72;;;-1.81;85.52
72414;BME280;60995;52.154;4.498;2022-12-18T00:11:47;102746.38;;;-2.21;85.64
72414;BME280;60995;52.154;4.498;2022-12-18T00:14:03;102742.78;;;-2.07;85.39
72414;BME280;60995;52.154;4.498;2022-12-18T00:16:20;102738.28;;;-2.02;85.64
72414;BME280;60995;52.154;4.498;2022-12-18T00:18:37;102728.72;;;-2.31;86.96
72414;BME280;60995;52.154;4.498;2022-12-18T00:20:53;102728.59;;;-2.09;86.77
72414;BME280;60995;52.154;4.498;2022-12-18T00:23:09;102738.28;;;-2.02;86.16
72414;BME280;60995;52.154;4.498;2022-12-18T00:25:25;102740.13;;;-2.12;86.37
72414;BME280;60995;52.154;4.498;2022-12-18T00:27:41;102733.75;;;-1.85;85.78
72414;BME280;60995;52.154;4.498;2022-12-18T00:29:57;102720.25;;;-1.60;85.59
72414;BME280;60995;52.154;4.498;2022-12-18T00:32:13;102734.53;;;-1.70;84.71
72414;BME280;60995;52.154;4.498;2022-12-18T00:34:29;102736.38;;;-1.81;84.70
72414;BME280;60995;52.154;4.498;2022-12-18T00:36:46;102723.88;;;-1.70;84.90
72414;BME280;60995;52.154;4.498;2022-12-18T00:39:04;102732.94;;;-1.93;85.25
72414;BME280;60995;52.154;4.498;2022-12-18T00:41:21;102728.59;;;-2.09;85.80
72414;BME280;60995;52.154;4.498;2022-12-18T00:43:56;102728.50;;;-1.97;85.77
72414;BME280;60995;52.154;4.498;2022-12-18T00:46:12;102733.09;;;-2.27;86.05
72414;BME280;60995;52.154;4.498;2022-12-18T00:48:28;102732.28;;;-2.41;86.96
72414;BME280;60995;52.154;4.498;2022-12-18T00:50:45;102732.22;;;-2.24;86.71
72414;BME280;60995;52.154;4.498;2022-12-18T00:53:01;102743.63;;;-2.05;86.56
72414;BME280;60995;52.154;4.498;2022-12-18T00:55:17;102740.94;;;-2.02;85.91
72414;BME280;60995;52.154;4.498;2022-12-18T00:57:34;102744.66;;;-2.26;86.25
72414;BME280;60995;52.154;4.498;2022-12-18T00:59:50;102738.41;;;-2.16;86.45
72414;BME280;60995;52.154;4.498;2022-12-18T01:02:06;102740.09;;;-2.04;85.48
72414;BME280;60995;52.154;4.498;2022-12-18T01:04:22;102740.09;;;-2.04;85.05
72414;BME280;60995;52.154;4.498;2022-12-18T01:06:38;102756.22;;;-2.38;85.97
72414;BME280;60995;52.154;4.498;2022-12-18T01:08:54;102758.00;;;-2.37;85.58
72414;BME280;60995;52.154;4.498;2022-12-18T01:11:11;102757.91;;;-2.17;85.66
72414;BME280;60995;52.154;4.498;2022-12-18T01:13:29;102754.41;;;-2.30;85.52
72414;BME280;60995;52.154;4.498;2022-12-18T01:15:49;102749.97;;;-2.29;86.12
72414;BME280;60995;52.154;4.498;2022-12-18T01:18:05;102741.00;;;-2.11;86.29
72414;BME280;60995;52.154;4.498;2022-12-18T01:20:22;102741.91;;;-2.16;86.23
72414;BME280;60995;52.154;4.498;2022-12-18T01:22:38;102747.38;;;-2.40;85.43
72414;BME280;60995;52.154;4.498;2022-12-18T01:24:54;102753.53;;;-2.30;85.66
72414;BME280;60995;52.154;4.498;2022-12-18T01:27:10;102749.13;;;-2.38;85.53
72414;BME280;60995;52.154;4.498;2022-12-18T01:29:26;102747.50;;;-2.68;85.45
72414;BME280;60995;52.154;4.498;2022-12-18T01:31:43;102759.03;;;-2.78;86.94
72414;BME280;60995;52.154;4.498;2022-12-18T01:34:03;102753.53;;;-2.34;86.53
72414;BME280;60995;52.154;4.498;2022-12-18T01:36:22;102750.91;;;-2.41;85.45
72414;BME280;60995;52.154;4.498;2022-12-18T01:38:40;102754.34;;;-2.14;86.16
72414;BME280;60995;52.154;4.498;2022-12-18T01:41:00;102769.56;;;-2.51;85.51
72414;BME280;60995;52.154;4.498;2022-12-18T01:43:16;102767.84;;;-2.69;86.03
72414;BME280;60995;52.154;4.498;2022-12-18T01:45:32;102764.25;;;-2.52;86.14
72414;BME280;60995;52.154;4.498;2022-12-18T01:47:56;102769.44;;;-2.26;86.41
72414;BME280;60995;52.154;4.498;2022-12-18T01:50:23;102767.66;;;-2.18;86.61
72414;BME280;60995;52.154;4.498;2022-12-18T01:53:05;102772.88;;;-2.04;87.48
72414;BME280;60995;52.154;4.498;2022-12-18T01:55:28;102766.84;;;-2.35;86.40
72414;BME280;60995;52.154;4.498;2022-12-18T01:57:46;102779.22;;;-2.31;86.03
72414;BME280;60995;52.154;4.498;2022-12-18T02:00:06;102770.34;;;-2.27;86.58
72414;BME280;60995;52.154;4.498;2022-12-18T02:02:25;102777.41;;;-2.20;85.54
72414;BME280;60995;52.154;4.498;2022-12-18T02:04:44;102782.00;;;-2.59;86.22
72414;BME280;60995;52.154;4.498;2022-12-18T02:09:38;102786.41;;;-2.48;87.01
72414;BME280;60995;52.154;4.498;2022-12-18T02:12:06;102798.84;;;-2.57;86.56
72414;BME280;60995;52.154;4.498;2022-12-18T02:27:35;102780.28;;;-2.78;86.74
72414;BME280;60995;52.154;4.498;2022-12-18T02:29:55;102774.13;;;-3.05;87.42
72414;BME280;60995;52.154;4.498;2022-12-18T02:32:16;102782.91;;;-2.57;87.61
72414;BME280;60995;52.154;4.498;2022-12-18T02:34:37;102782.94;;;-2.85;87.14
72414;BME280;60995;52.154;4.498;2022-12-18T02:36:54;102771.38;;;-2.62;86.75
72414;BME280;60995;52.154;4.498;2022-12-18T02:39:13;102758.09;;;-2.60;86.86
72414;BME280;60995;52.154;4.498;2022-12-18T02:41:31;102752.69;;;-2.46;87.59
72414;BME280;60995;52.154;4.498;2022-12-18T02:43:48;102747.38;;;-2.40;86.65
72414;BME280;60995;52.154;4.498;2022-12-18T02:46:23;102742.81;;;-2.13;85.98
72414;BME280;60995;52.154;4.498;2022-12-18T02:48:52;102735.06;;;-2.61;85.57
72414;BME280;60995;52.154;4.498;2022-12-18T02:51:26;102735.19;;;-3.03;85.71
72414;BME280;60995;52.154;4.498;2022-12-18T02:53:51;102735.13;;;-2.81;86.65
72414;BME280;60995;52.154;4.498;2022-12-18T02:56:14;102722.72;;;-2.79;86.21
72414;BME280;60995;52.154;4.498;2022-12-18T03:01:01;102725.31;;;-2.69;85.46
72414;BME280;60995;52.154;4.498;2022-12-18T03:03:35;102728.91;;;-2.74;85.19
72414;BME280;60995;52.154;4.498;2022-12-18T03:05:58;102734.28;;;-3.05;84.85
72414;BME280;60995;52.154;4.498;2022-12-18T03:08:30;102736.97;;;-3.11;85.55
72414;BME280;60995;52.154;4.498;2022-12-18T03:11:02;102728.06;;;-2.83;85.25
72414;BME280;60995;52.154;4.498;2022-12-18T03:13:25;102728.06;;;-2.93;85.59
72414;BME280;60995;52.154;4.498;2022-12-18T03:15:49;102725.41;;;-2.87;85.78
72414;BME280;60995;52.154;4.498;2022-12-18T03:18:11;102731.59;;;-2.90;85.33
72414;BME280;60995;52.154;4.498;2022-12-18T03:20:30;102729.00;;;-3.16;85.73
72414;BME280;60995;52.154;4.498;2022-12-18T03:22:51;102725.41;;;-2.93;86.00
72414;BME280;60995;52.154;4.498;2022-12-18T03:25:13;102724.50;;;-2.78;85.20
72414;BME280;60995;52.154;4.498;2022-12-18T03:27:32;102721.84;;;-2.83;84.38
72414;BME280;60995;52.154;4.498;2022-12-18T03:29:54;102722.72;;;-2.86;84.08
72414;BME280;60995;52.154;4.498;2022-12-18T03:32:27;102716.53;;;-2.81;84.09
72414;BME280;60995;52.154;4.498;2022-12-18T03:34:47;102717.44;;;-2.95;83.97
72414;BME280;60995;52.154;4.498;2022-12-18T03:37:06;102722.75;;;-2.89;84.09
72414;BME280;60995;52.154;4.498;2022-12-18T03:39:23;102719.19;;;-2.78;84.65
72414;BME280;60995;52.154;4.498;2022-12-18T03:41:57;102711.28;;;-3.11;84.58
72414;BME280;60995;52.154;4.498;2022-12-18T03:44:42;102705.06;;;-2.87;84.63
72414;BME280;60995;52.154;4.498;2022-12-18T03:49:36;102699.81;;;-3.18;83.76
72414;BME280;60995;52.154;4.498;2022-12-18T03:52:03;102695.44;;;-3.45;85.06
72414;BME280;60995;52.154;4.498;2022-12-18T03:54:24;102692.69;;;-3.03;85.12
72414;BME280;60995;52.154;4.498;2022-12-18T03:56:44;102695.28;;;-2.91;84.65
72414;BME280;60995;52.154;4.498;2022-12-18T03:59:07;102695.28;;;-2.91;84.48
72414;BME280;60995;52.154;4.498;2022-12-18T04:01:31;102694.50;;;-3.18;83.94
72414;BME280;60995;52.154;4.498;2022-12-18T04:03:50;102698.94;;;-3.21;84.58
72414;BME280;60995;52.154;4.498;2022-12-18T04:06:06;102706.91;;;-3.23;84.43
72414;BME280;60995;52.154;4.498;2022-12-18T04:08:23;102708.69;;;-3.31;84.69
72414;BME280;60995;52.154;4.498;2022-12-18T04:10:41;102706.94;;;-3.41;84.10
72414;BME280;60995;52.154;4.498;2022-12-18T04:12:57;102707.84;;;-3.70;85.16
72414;BME280;60995;52.154;4.498;2022-12-18T04:15:13;102713.13;;;-3.72;85.20
72414;BME280;60995;52.154;4.498;2022-12-18T04:17:30;102712.25;;;-3.68;85.32
72414;BME280;60995;52.154;4.498;2022-12-18T04:19:46;102714.88;;;-3.60;85.32
72414;BME280;60995;52.154;4.498;2022-12-18T04:22:02;102719.34;;;-3.56;84.84
72414;BME280;60995;52.154;4.498;2022-12-18T04:24:18;102720.19;;;-3.54;85.97
72414;BME280;60995;52.154;4.498;2022-12-18T04:26:34;102711.34;;;-3.39;85.34
72414;BME280;60995;52.154;4.498;2022-12-18T04:28:50;102721.09;;;-3.45;85.13
72414;BME280;60995;52.154;4.498;2022-12-18T04:31:06;102715.75;;;-3.24;85.36
72414;BME280;60995;52.154;4.498;2022-12-18T04:33:22;102720.22;;;-3.57;85.81
72414;BME280;60995;52.154;4.498;2022-12-18T04:35:39;102714.91;;;-3.55;85.67
72414;BME280;60995;52.154;4.498;2022-12-18T04:37:55;102722.88;;;-3.51;85.88
72414;BME280;60995;52.154;4.498;2022-12-18T04:40:11;102720.22;;;-3.64;85.31
72414;BME280;60995;52.154;4.498;2022-12-18T04:42:28;102721.97;;;-3.73;85.80
72414;BME280;60995;52.154;4.498;2022-12-18T04:44:44;102722.84;;;-3.54;85.54
72414;BME280;60995;52.154;4.498;2022-12-18T04:47:00;102710.47;;;-3.45;84.95
72414;BME280;60995;52.154;4.498;2022-12-18T04:49:16;102725.50;;;-3.63;84.93
72414;BME280;60995;52.154;4.498;2022-12-18T04:51:33;102725.50;;;-3.52;85.33
72414;BME280;60995;52.154;4.498;2022-12-18T04:53:49;102719.31;;;-3.84;85.44
72414;BME280;60995;52.154;4.498;2022-12-18T04:56:09;102714.00;;;-4.04;85.84
72414;BME280;60995;52.154;4.498;2022-12-18T04:58:28;102713.97;;;-4.08;85.81
72414;BME280;60995;52.154;4.498;2022-12-18T05:00:44;102710.44;;;-4.06;86.53
72414;BME280;60995;52.154;4.498;2022-12-18T05:03:00;102723.69;;;-3.96;86.10
72414;BME280;60995;52.154;4.498;2022-12-18T05:05:17;102718.41;;;-4.01;86.05
72414;BME280;60995;52.154;4.498;2022-12-18T05:07:34;102718.41;;;-3.96;85.77
72414;BME280;60995;52.154;4.498;2022-12-18T05:09:50;102722.84;;;-3.97;85.43
72414;BME280;60995;52.154;4.498;2022-12-18T05:12:06;102718.44;;;-3.66;84.61
72414;BME280;60995;52.154;4.498;2022-12-18T05:14:22;102719.31;;;-3.84;84.22
72414;BME280;60995;52.154;4.498;2022-12-18T05:16:38;102729.06;;;-3.78;84.59
72414;BME280;60995;52.154;4.498;2022-12-18T05:18:54;102728.16;;;-4.00;83.76
72414;BME280;60995;52.154;4.498;2022-12-18T05:21:10;102721.88;;;-4.25;84.84
72414;BME280;60995;52.154;4.498;2022-12-18T05:23:26;102718.38;;;-4.15;84.89
72414;BME280;60995;52.154;4.498;2022-12-18T05:25:46;102714.78;;;-4.42;85.22
72414;BME280;60995;52.154;4.498;2022-12-18T05:28:05;102712.13;;;-4.37;85.29
72414;BME280;60995;52.154;4.498;2022-12-18T05:30:21;102715.63;;;-4.47;85.31
72414;BME280;60995;52.154;4.498;2022-12-18T05:32:38;102705.97;;;-4.38;86.03
72414;BME280;60995;52.154;4.498;2022-12-18T05:34:55;102709.56;;;-4.17;86.25
72414;BME280;60995;52.154;4.498;2022-12-18T05:37:12;102701.56;;;-4.19;84.79
72414;BME280;60995;52.154;4.498;2022-12-18T05:39:29;102696.28;;;-4.19;84.83
72414;BME280;60995;52.154;4.498;2022-12-18T05:41:45;102682.13;;;-4.30;84.95
72414;BME280;60995;52.154;4.498;2022-12-18T05:44:02;102685.69;;;-4.12;84.45
72414;BME280;60995;52.154;4.498;2022-12-18T05:46:18;102683.84;;;-4.51;85.23
72414;BME280;60995;52.154;4.498;2022-12-18T05:48:35;102688.25;;;-4.45;85.77
72414;BME280;60995;52.154;4.498;2022-12-18T05:50:51;102695.41;;;-4.21;85.71
72414;BME280;60995;52.154;4.498;2022-12-18T05:53:07;102699.81;;;-4.20;85.13
72414;BME280;60995;52.154;4.498;2022-12-18T05:55:24;102693.66;;;-4.16;84.75
72414;BME280;60995;52.154;4.498;2022-12-18T05:57:40;102694.44;;;-4.47;84.95
72414;BME280;60995;52.154;4.498;2022-12-18T05:59:56;102694.50;;;-4.35;84.78
72414;BME280;60995;52.154;4.498;2022-12-18T06:02:12;102693.56;;;-4.43;85.05
72414;BME280;60995;52.154;4.498;2022-12-18T06:04:28;102696.25;;;-4.37;85.33
72414;BME280;60995;52.154;4.498;2022-12-18T06:06:44;102688.31;;;-4.28;85.19
72414;BME280;60995;52.154;4.498;2022-12-18T06:09:00;102682.13;;;-4.27;84.69
72414;BME280;60995;52.154;4.498;2022-12-18T06:11:18;102681.28;;;-4.18;84.02
72414;BME280;60995;52.154;4.498;2022-12-18T06:13:36;102675.97;;;-4.17;84.09
72414;BME280;60995;52.154;4.498;2022-12-18T06:15:52;102681.22;;;-4.30;83.80
72414;BME280;60995;52.154;4.498;2022-12-18T06:18:08;102675.97;;;-4.27;83.33
72414;BME280;60995;52.154;4.498;2022-12-18T06:20:24;102668.00;;;-4.17;83.64
72414;BME280;60995;52.154;4.498;2022-12-18T06:22:40;102663.59;;;-4.08;84.15
72414;BME280;60995;52.154;4.498;2022-12-18T06:24:56;102660.06;;;-4.18;83.70
72414;BME280;60995;52.154;4.498;2022-12-18T06:27:12;102670.66;;;-4.15;82.81
72414;BME280;60995;52.154;4.498;2022-12-18T06:29:28;102669.78;;;-4.06;83.20
72414;BME280;60995;52.154;4.498;2022-12-18T06:31:44;102664.47;;;-4.14;82.95
72414;BME280;60995;52.154;4.498;2022-12-18T06:34:04;102659.16;;;-4.19;82.87
72414;BME280;60995;52.154;4.498;2022-12-18T06:36:20;102650.31;;;-4.36;83.20
72414;BME280;60995;52.154;4.498;2022-12-18T06:38:37;102648.56;;;-4.28;82.77
72414;BME280;60995;52.154;4.498;2022-12-18T06:40:54;102638.84;;;-4.21;82.67
72414;BME280;60995;52.154;4.498;2022-12-18T06:43:10;102633.56;;;-4.27;82.12
72414;BME280;60995;52.154;4.498;2022-12-18T06:45:26;102633.53;;;-4.15;82.89
72414;BME280;60995;52.154;4.498;2022-12-18T06:47:42;102634.41;;;-4.27;82.21
72414;BME280;60995;52.154;4.498;2022-12-18T06:49:58;102630.91;;;-4.20;82.79
72414;BME280;60995;52.154;4.498;2022-12-18T06:52:14;102634.41;;;-4.36;81.72
72414;BME280;60995;52.154;4.498;2022-12-18T06:54:32;102624.69;;;-4.19;82.88
72414;BME280;60995;52.154;4.498;2022-12-18T06:56:48;102629.97;;;-4.45;81.85
72414;BME280;60995;52.154;4.498;2022-12-18T06:59:04;102626.41;;;-4.62;82.61
72414;BME280;60995;52.154;4.498;2022-12-18T07:01:20;102623.81;;;-4.45;81.87
72414;BME280;60995;52.154;4.498;2022-12-18T07:03:37;102615.84;;;-4.42;81.46
72414;BME280;60995;52.154;4.498;2022-12-18T07:05:54;102611.44;;;-4.40;81.28
72414;BME280;60995;52.154;4.498;2022-12-18T07:08:10;102608.78;;;-4.39;81.46
72414;BME280;60995;52.154;4.498;2022-12-18T07:10:26;102611.41;;;-4.54;81.85
72414;BME280;60995;52.154;4.498;2022-12-18T07:12:42;102612.31;;;-4.51;81.44
72414;BME280;60995;52.154;4.498;2022-12-18T07:14:58;102607.88;;;-4.55;81.51
72414;BME280;60995;52.154;4.498;2022-12-18T07:17:14;102599.94;;;-4.49;81.49
72414;BME280;60995;52.154;4.498;2022-12-18T07:19:30;102592.00;;;-4.52;81.82
72414;BME280;60995;52.154;4.498;2022-12-18T07:21:46;102581.34;;;-4.67;81.17
72414;BME280;60995;52.154;4.498;2022-12-18T07:24:02;102574.31;;;-4.62;80.72
72414;BME280;60995;52.154;4.498;2022-12-18T07:26:20;102558.41;;;-4.62;81.13
72414;BME280;60995;52.154;4.498;2022-12-18T07:28:37;102559.31;;;-4.49;81.23
72414;BME280;60995;52.154;4.498;2022-12-18T07:30:54;102551.38;;;-4.60;81.22
72414;BME280;60995;52.154;4.498;2022-12-18T07:33:10;102542.53;;;-4.48;80.59
72414;BME280;60995;52.154;4.498;2022-12-18T07:35:28;102549.59;;;-4.58;80.80
72414;BME280;60995;52.154;4.498;2022-12-18T07:37:44;102546.06;;;-4.66;80.52
72414;BME280;60995;52.154;4.498;2022-12-18T07:40:00;102539.00;;;-4.49;80.43
72414;BME280;60995;52.154;4.498;2022-12-18T07:42:16;102547.84;;;-4.50;80.65
72414;BME280;60995;52.154;4.498;2022-12-18T07:44:47;102544.31;;;-4.52;80.18
72414;BME280;60995;52.154;4.498;2022-12-18T07:47:03;102548.72;;;-4.57;80.43
72414;BME280;60995;52.154;4.498;2022-12-18T07:49:19;102546.06;;;-4.66;80.31
72414;BME280;60995;52.154;4.498;2022-12-18T07:51:35;102554.88;;;-4.76;81.29
72414;BME280;60995;52.154;4.498;2022-12-18T07:53:51;102563.72;;;-4.62;80.98
72414;BME280;60995;52.154;4.498;2022-12-18T07:56:08;102555.78;;;-4.51;80.84
72414;BME280;60995;52.154;4.498;2022-12-18T07:58:25;102561.06;;;-4.59;80.61
72414;BME280;60995;52.154;4.498;2022-12-18T08:00:42;102558.41;;;-4.53;80.05
72414;BME280;60995;52.154;4.498;2022-12-18T08:02:58;102565.50;;;-4.55;80.59
72414;BME280;60995;52.154;4.498;2022-12-18T08:05:14;102558.41;;;-4.65;80.87
72414;BME280;60995;52.154;4.498;2022-12-18T08:07:30;102561.06;;;-4.59;80.85
72414;BME280;60995;52.154;4.498;2022-12-18T08:09:46;102559.34;;;-4.44;80.50
72414;BME280;60995;52.154;4.498;2022-12-18T08:12:02;102565.50;;;-4.45;79.80
72414;BME280;60995;52.154;4.498;2022-12-18T08:14:18;102549.59;;;-4.27;79.50
72414;BME280;60995;52.154;4.498;2022-12-18T08:16:34;102539.88;;;-4.46;79.70
72414;BME280;60995;52.154;4.498;2022-12-18T08:18:51;102546.94;;;-4.41;80.13
72414;BME280;60995;52.154;4.498;2022-12-18T08:21:09;102542.53;;;-4.19;79.98
72414;BME280;60995;52.154;4.498;2022-12-18T08:23:33;102541.66;;;-4.22;79.27
72414;BME280;60995;52.154;4.498;2022-12-18T08:25:49;102537.22;;;-4.28;81.15
72414;BME280;60995;52.154;4.498;2022-12-18T08:28:06;102546.03;;;-3.96;80.53
72414;BME280;60995;52.154;4.498;2022-12-18T08:30:22;102546.94;;;-4.08;79.34
72414;BME280;60995;52.154;4.498;2022-12-18T08:32:38;102532.81;;;-3.95;79.40
72414;BME280;60995;52.154;4.498;2022-12-18T08:34:54;102542.50;;;-4.03;79.96
72414;BME280;60995;52.154;4.498;2022-12-18T08:37:10;102549.56;;;-3.91;78.90
72414;BME280;60995;52.154;4.498;2022-12-18T08:39:26;102553.09;;;-3.68;79.59
72414;BME280;60995;52.154;4.498;2022-12-18T08:41:42;102566.38;;;-3.91;78.49
72414;BME280;60995;52.154;4.498;2022-12-18T08:44:18;102572.53;;;-3.72;79.54
72414;BME280;60995;52.154;4.498;2022-12-18T08:46:52;102575.94;;;-3.22;78.22
72414;BME280;60995;52.154;4.498;2022-12-18T08:49:09;102586.50;;;-3.12;77.77
72414;BME280;60995;52.154;4.498;2022-12-18T08:51:27;102571.59;;;-3.47;76.70
72414;BME280;60995;52.154;4.498;2022-12-18T08:53:43;102564.50;;;-3.42;76.78
72414;BME280;60995;52.154;4.498;2022-12-18T08:56:03;102565.34;;;-3.31;76.08
72414;BME280;60995;52.154;4.498;2022-12-18T08:58:19;102577.78;;;-3.52;77.25
72414;BME280;60995;52.154;4.498;2022-12-18T09:00:35;102586.56;;;-3.23;77.86
72414;BME280;60995;52.154;4.498;2022-12-18T09:02:51;102582.03;;;-3.06;77.15
72414;BME280;60995;52.154;4.498;2022-12-18T09:05:07;102577.72;;;-3.30;77.12
72414;BME280;60995;52.154;4.498;2022-12-18T09:07:24;102586.56;;;-3.28;77.49
72414;BME280;60995;52.154;4.498;2022-12-18T09:09:40;102568.88;;;-3.29;77.83
72414;BME280;60995;52.154;4.498;2022-12-18T09:11:56;102571.41;;;-3.01;76.80
72414;BME280;60995;52.154;4.498;2022-12-18T09:14:12;102568.81;;;-3.17;76.55
72414;BME280;60995;52.154;4.498;2022-12-18T09:16:29;102566.13;;;-3.06;75.96
72414;BME280;60995;52.154;4.498;2022-12-18T09:18:45;102566.88;;;-2.84;75.74
72414;BME280;60995;52.154;4.498;2022-12-18T09:21:15;102542.28;;;-3.23;75.90
72414;BME280;60995;52.154;4.498;2022-12-18T09:23:33;102533.41;;;-3.16;77.42
72414;BME280;60995;52.154;4.498;2022-12-18T09:25:50;102530.06;;;-3.66;77.88
72414;BME280;60995;52.154;4.498;2022-12-18T09:28:10;102527.25;;;-3.25;76.84
72414;BME280;60995;52.154;4.498;2022-12-18T09:30:31;102536.19;;;-3.39;77.62
72414;BME280;60995;52.154;4.498;2022-12-18T09:32:49;102529.03;;;-3.27;77.22
72414;BME280;60995;52.154;4.498;2022-12-18T09:35:05;102542.13;;;-2.89;75.85
72414;BME280;60995;52.154;4.498;2022-12-18T09:37:21;102544.72;;;-2.79;75.75
72414;BME280;60995;52.154;4.498;2022-12-18T09:39:37;102536.00;;;-3.02;76.48
72414;BME280;60995;52.154;4.498;2022-12-18T09:41:57;102521.88;;;-3.10;76.88
72414;BME280;60995;52.154;4.498;2022-12-18T09:46:37;102544.03;;;-3.14;76.78
72414;BME280;60995;52.154;4.498;2022-12-18T09:49:00;102550.19;;;-3.06;77.35
72414;BME280;60995;52.154;4.498;2022-12-18T09:51:23;102544.03;;;-3.12;76.96
72414;BME280;60995;52.154;4.498;2022-12-18T09:54:03;102547.41;;;-2.83;76.91
72414;BME280;60995;52.154;4.498;2022-12-18T09:56:22;102542.28;;;-3.23;77.04
72414;BME280;60995;52.154;4.498;2022-12-18T09:58:49;102529.91;;;-3.24;77.21
72414;BME280;60995;52.154;4.498;2022-12-18T10:01:18;102518.25;;;-2.92;76.67
72414;BME280;60995;52.154;4.498;2022-12-18T10:03:38;102516.31;;;-2.70;76.99
72414;BME280;60995;52.154;4.498;2022-12-18T10:06:07;102522.59;;;-2.81;76.31
72414;BME280;60995;52.154;4.498;2022-12-18T10:10:59;102520.59;;;-2.52;76.20
72414;BME280;60995;52.154;4.498;2022-12-18T10:13:39;102514.50;;;-2.66;76.49
72414;BME280;60995;52.154;4.498;2022-12-18T10:16:21;102524.28;;;-2.73;77.89
72414;BME280;60995;52.154;4.498;2022-12-18T10:21:39;102529.41;;;-2.46;75.40
72414;BME280;60995;52.154;4.498;2022-12-18T10:24:14;102511.56;;;-2.29;75.15
72414;BME280;60995;52.154;4.498;2022-12-18T10:26:41;102508.53;;;-1.90;75.71
72414;BME280;60995;52.154;4.498;2022-12-18T10:28:57;102496.13;;;-1.91;74.96
72414;BME280;60995;52.154;4.498;2022-12-18T10:31:19;102489.28;;;-2.16;74.55
72414;BME280;60995;52.154;4.498;2022-12-18T10:33:37;102478.69;;;-2.20;75.00
72414;BME280;60995;52.154;4.498;2022-12-18T10:35:53;102480.94;;;-1.81;74.25
72414;BME280;60995;52.154;4.498;2022-12-18T10:40:29;102479.22;;;-1.86;73.94
72414;BME280;60995;52.154;4.498;2022-12-18T10:42:45;102477.72;;;-2.10;75.04
72414;BME280;60995;52.154;4.498;2022-12-18T10:45:23;102482.88;;;-1.96;73.95
72414;BME280;60995;52.154;4.498;2022-12-18T10:47:41;102474.53;;;-2.51;74.48
72414;BME280;60995;52.154;4.498;2022-12-18T10:50:00;102476.25;;;-2.43;75.96
72414;BME280;60995;52.154;4.498;2022-12-18T10:52:17;102485.00;;;-2.32;75.04
72414;BME280;60995;52.154;4.498;2022-12-18T10:54:38;102482.97;;;-2.05;74.75
72414;BME280;60995;52.154;4.498;2022-12-18T10:57:13;102478.56;;;-2.09;75.07
72414;BME280;60995;52.154;4.498;2022-12-18T10:59:31;102480.97;;;-1.85;75.27
72414;BME280;60995;52.154;4.498;2022-12-18T11:02:10;102471.34;;;-1.95;75.41
72414;BME280;60995;52.154;4.498;2022-12-18T11:04:50;102475.59;;;-1.81;74.99
72414;BME280;60995;52.154;4.498;2022-12-18T11:07:07;102473.66;;;-1.65;74.46
72414;BME280;60995;52.154;4.498;2022-12-18T11:09:38;102479.22;;;-1.86;73.89
72414;BME280;60995;52.154;4.498;2022-12-18T11:11:56;102462.91;;;-1.58;73.94
72414;BME280;60995;52.154;4.498;2022-12-18T11:14:19;102468.22;;;-1.58;73.55
72414;BME280;60995;52.154;4.498;2022-12-18T11:16:43;102466.91;;;-1.24;73.79
72414;BME280;60995;52.154;4.498;2022-12-18T11:19:09;102467.13;;;-1.38;72.89
72414;BME280;60995;52.154;4.498;2022-12-18T11:21:48;102464.72;;;-1.60;73.95
72414;BME280;60995;52.154;4.498;2022-12-18T11:24:04;102443.22;;;-1.44;74.38
72414;BME280;60995;52.154;4.498;2022-12-18T11:26:34;102444.25;;;-1.58;72.28
72414;BME280;60995;52.154;4.498;2022-12-18T11:28:52;102434.75;;;-1.77;73.73
72414;BME280;60995;52.154;4.498;2022-12-18T11:31:25;102433.78;;;-1.70;73.75
72414;BME280;60995;52.154;4.498;2022-12-18T11:33:49;102430.28;;;-1.74;73.75
72414;BME280;60995;52.154;4.498;2022-12-18T11:36:28;102425.44;;;-1.42;73.76
72414;BME280;60995;52.154;4.498;2022-12-18T11:38:48;102433.22;;;-1.27;71.88
72414;BME280;60995;52.154;4.498;2022-12-18T11:41:28;102418.00;;;-1.19;72.47
72414;BME280;60995;52.154;4.498;2022-12-18T11:44:07;102412.28;;;-1.53;72.57
72414;BME280;60995;52.154;4.498;2022-12-18T11:46:37;102399.13;;;-1.64;73.06
72414;BME280;60995;52.154;4.498;2022-12-18T11:49:12;102386.41;;;-1.43;73.30
72414;BME280;60995;52.154;4.498;2022-12-18T11:51:47;102385.19;;;-1.21;72.91
72414;BME280;60995;52.154;4.498;2022-12-18T11:54:12;102370.69;;;-1.62;74.24
72414;BME280;60995;52.154;4.498;2022-12-18T11:56:34;102377.09;;;-1.14;73.41
72414;BME280;60995;52.154;4.498;2022-12-18T12:04:59;102341.44;;;-1.04;72.76
72414;BME280;60995;52.154;4.498;2022-12-18T12:13:05;102345.81;;;-1.02;73.49
72414;BME280;60995;52.154;4.498;2022-12-18T12:15:46;102343.16;;;-1.03;71.57
72414;BME280;60995;52.154;4.498;2022-12-18T12:20:45;102355.88;;;-1.21;72.87
72414;BME280;60995;52.154;4.498;2022-12-18T12:31:10;102343.56;;;-0.75;72.34
72414;BME280;60995;52.154;4.498;2022-12-18T12:33:51;102332.66;;;-1.12;73.00
72414;BME280;60995;52.154;4.498;2022-12-18T12:39:29;102325.84;;;-0.77;71.99
72414;BME280;60995;52.154;4.498;2022-12-18T12:41:48;102321.75;;;-0.97;73.03
72414;BME280;60995;52.154;4.498;2022-12-18T12:44:24;102323.19;;;-0.77;73.09
72414;BME280;60995;52.154;4.498;2022-12-18T12:46:45;102314.63;;;-0.95;72.60
72414;BME280;60995;52.154;4.498;2022-12-18T12:49:09;102313.72;;;-0.94;73.66
72414;BME280;60995;52.154;4.498;2022-12-18T12:51:32;102314.59;;;-0.93;73.07
72414;BME280;60995;52.154;4.498;2022-12-18T12:53:51;102312.34;;;-0.68;74.69
72414;BME280;60995;52.154;4.498;2022-12-18T12:56:10;102307.97;;;-0.72;75.31
72414;BME280;60995;52.154;4.498;2022-12-18T12:58:30;102303.84;;;-0.42;72.99
72414;BME280;60995;52.154;4.498;2022-12-18T13:00:57;102298.00;;;-0.61;76.02
72414;BME280;60995;52.154;4.498;2022-12-18T13:06:09;102286.63;;;-0.69;73.97
72414;BME280;60995;52.154;4.498;2022-12-18T13:08:51;102288.31;;;-0.65;73.04
72414;BME280;60995;52.154;4.498;2022-12-18T13:11:15;102283.69;;;-0.57;72.64